createdAt,value
2022-08-23T00:00:41.324Z,100.00
2022-08-23T00:03:10.019Z,100.00
2022-08-23T00:05:38.501Z,100.00
2022-08-23T00:08:07.315Z,100.00
2022-08-23T00:10:35.901Z,100.00
2022-08-23T00:13:04.585Z,100.00
2022-08-23T00:15:34.838Z,100.00
2022-08-23T00:18:03.331Z,100.00
2022-08-23T00:20:31.842Z,100.00
2022-08-23T00:23:00.217Z,100.00
2022-08-23T00:25:28.577Z,100.00
2022-08-23T00:27:57.105Z,100.00
2022-08-23T00:30:26.651Z,100.00
2022-08-23T00:32:57.021Z,100.00
2022-08-23T00:35:27.512Z,100.00
2022-08-23T00:38:05.996Z,100.00
2022-08-23T00:40:51.173Z,100.00
2022-08-23T00:43:41.410Z,100.00
2022-08-23T00:46:37.077Z,100.00
2022-08-23T00:49:12.459Z,100.00
2022-08-23T00:51:53.194Z,100.00
2022-08-23T00:54:23.596Z,100.00
2022-08-23T00:56:52.976Z,100.00
2022-08-23T00:59:21.668Z,100.00
2022-08-23T01:01:50.372Z,100.00
2022-08-23T01:04:21.164Z,100.00
2022-08-23T01:06:53.297Z,100.00
2022-08-23T01:09:22.845Z,100.00
2022-08-23T01:11:57.678Z,100.00
2022-08-23T01:14:31.772Z,100.00
2022-08-23T01:17:07.358Z,100.00
2022-08-23T01:19:39.341Z,100.00
2022-08-23T01:22:14.840Z,100.00
2022-08-23T01:25:05.759Z,100.00
2022-08-23T01:27:35.758Z,100.00
2022-08-23T01:30:05.869Z,100.00
2022-08-23T01:32:38.486Z,100.00
2022-08-23T01:35:07.601Z,100.00
2022-08-23T01:37:36.541Z,100.00
2022-08-23T01:40:08.146Z,100.00
2022-08-23T01:42:36.779Z,100.00
2022-08-23T01:45:05.918Z,100.00
2022-08-23T01:47:34.323Z,100.00
2022-08-23T01:50:02.689Z,100.00
2022-08-23T01:52:31.286Z,100.00
2022-08-23T01:55:01.907Z,100.00
2022-08-23T01:57:32.789Z,100.00
2022-08-23T02:00:01.557Z,100.00
2022-08-23T02:02:30.098Z,100.00
2022-08-23T02:04:58.487Z,100.00
2022-08-23T02:07:28.362Z,100.00
2022-08-23T02:09:56.909Z,100.00
2022-08-23T02:12:25.506Z,100.00
2022-08-23T02:14:55.324Z,100.00
2022-08-23T02:17:24.287Z,100.00
2022-08-23T02:19:52.888Z,100.00
2022-08-23T02:22:21.350Z,100.00
2022-08-23T02:24:51.158Z,100.00
2022-08-23T02:27:19.541Z,100.00
2022-08-23T02:29:48.748Z,100.00
2022-08-23T02:32:21.424Z,100.00
2022-08-23T02:35:04.960Z,100.00
2022-08-23T02:37:34.401Z,100.00
2022-08-23T02:40:03.029Z,100.00
2022-08-23T02:42:31.501Z,100.00
2022-08-23T02:44:59.871Z,100.00
2022-08-23T02:47:29.848Z,100.00
2022-08-23T02:49:58.474Z,100.00
2022-08-23T02:52:26.851Z,100.00
2022-08-23T02:54:58.243Z,100.00
2022-08-23T02:57:26.900Z,100.00
2022-08-23T02:59:55.948Z,100.00
2022-08-23T03:02:24.387Z,100.00
2022-08-23T03:04:54.428Z,100.00
2022-08-23T03:07:22.783Z,100.00
2022-08-23T03:09:51.218Z,100.00
2022-08-23T03:12:19.820Z,100.00
2022-08-23T03:14:48.237Z,100.00
2022-08-23T03:17:16.622Z,100.00
2022-08-23T03:19:45.058Z,100.00
2022-08-23T03:22:14.996Z,100.00
2022-08-23T03:24:43.401Z,100.00
2022-08-23T03:27:11.817Z,100.00
2022-08-23T03:29:40.298Z,100.00
2022-08-23T03:32:08.778Z,100.00
2022-08-23T03:34:38.620Z,100.00
2022-08-23T03:37:07.186Z,100.00
2022-08-23T03:39:37.555Z,100.00
2022-08-23T03:42:06.839Z,100.00
2022-08-23T03:44:35.504Z,100.00
2022-08-23T03:47:03.940Z,100.00
2022-08-23T03:49:32.355Z,100.00
2022-08-23T03:52:01.533Z,100.00
2022-08-23T03:54:30.288Z,100.00
2022-08-23T03:57:03.065Z,100.00
2022-08-23T03:59:33.924Z,100.00
2022-08-23T04:02:02.584Z,100.00
2022-08-23T04:04:31.087Z,100.00
2022-08-23T04:06:59.502Z,100.00
2022-08-23T04:09:28.049Z,100.00
2022-08-23T04:11:56.547Z,100.00
2022-08-23T04:14:26.518Z,100.00
2022-08-23T04:16:55.746Z,100.00
2022-08-23T04:19:25.484Z,100.00
2022-08-23T04:21:54.254Z,100.00
2022-08-23T04:24:22.807Z,100.00
2022-08-23T04:26:51.353Z,100.00
2022-08-23T04:29:33.588Z,100.00
2022-08-23T04:32:07.697Z,100.00
2022-08-23T04:34:40.107Z,100.00
2022-08-23T04:37:09.371Z,100.00
2022-08-23T04:39:58.947Z,100.00
2022-08-23T04:42:26.867Z,100.00
2022-08-23T04:44:55.280Z,100.00
2022-08-23T04:47:25.188Z,100.00
2022-08-23T04:49:53.569Z,100.00
2022-08-23T04:52:22.229Z,100.00
2022-08-23T04:54:50.648Z,100.00
2022-08-23T04:57:19.050Z,100.00
2022-08-23T04:59:47.445Z,100.00
2022-08-23T05:02:15.855Z,100.00
2022-08-23T05:04:45.696Z,100.00
2022-08-23T05:07:15.676Z,100.00
2022-08-23T05:09:44.071Z,100.00
2022-08-23T05:12:12.966Z,100.00
2022-08-23T05:14:41.344Z,100.00
2022-08-23T05:17:16.256Z,100.00
2022-08-23T05:19:47.135Z,100.00
2022-08-23T05:22:15.912Z,100.00
2022-08-23T05:24:44.336Z,100.00
2022-08-23T05:27:13.756Z,100.00
2022-08-23T05:29:42.425Z,100.00
2022-08-23T05:32:11.905Z,100.00
2022-08-23T05:34:40.403Z,100.00
2022-08-23T05:37:10.277Z,100.00
2022-08-23T05:39:38.778Z,100.00
2022-08-23T05:42:08.269Z,100.00
2022-08-23T05:44:37.335Z,100.00
2022-08-23T05:47:11.067Z,100.00
2022-08-23T05:49:40.949Z,100.00
2022-08-23T05:52:13.157Z,100.00
2022-08-23T05:54:42.241Z,100.00
2022-08-23T05:57:11.788Z,100.00
2022-08-23T05:59:42.123Z,100.00
2022-08-23T06:02:10.785Z,100.00
2022-08-23T06:04:39.469Z,100.00
2022-08-23T06:07:09.924Z,100.00
2022-08-23T06:09:39.804Z,100.00
2022-08-23T06:12:08.444Z,100.00
2022-08-23T06:14:37.055Z,100.00
2022-08-23T06:17:05.822Z,100.00
2022-08-23T06:19:34.341Z,100.00
2022-08-23T06:22:03.052Z,100.00
2022-08-23T06:24:31.494Z,100.00
2022-08-23T06:27:01.302Z,100.00
2022-08-23T06:29:29.905Z,100.00
2022-08-23T06:31:58.318Z,100.00
2022-08-23T06:34:30.014Z,100.00
2022-08-23T06:37:01.103Z,100.00
2022-08-23T06:39:34.429Z,100.00
2022-08-23T06:42:34.375Z,100.00
2022-08-23T06:44:57.887Z,100.00
2022-08-23T06:47:26.382Z,100.00
2022-08-23T06:49:58.301Z,100.00
2022-08-23T06:52:27.739Z,100.00
2022-08-23T06:54:57.655Z,100.00
2022-08-23T06:57:27.819Z,100.00
2022-08-23T06:59:56.237Z,100.00
2022-08-23T07:02:26.338Z,100.00
2022-08-23T07:04:56.058Z,100.00
2022-08-23T07:07:24.439Z,100.00
2022-08-23T07:10:06.759Z,100.00
2022-08-23T07:12:40.901Z,100.00
2022-08-23T07:15:10.569Z,100.00
2022-08-23T07:17:38.945Z,100.00
2022-08-23T07:20:08.177Z,100.00
2022-08-23T07:22:36.676Z,100.00
2022-08-23T07:25:05.414Z,100.00
2022-08-23T07:27:33.893Z,100.00
2022-08-23T07:30:04.016Z,100.00
2022-08-23T07:32:32.574Z,100.00
2022-08-23T07:35:01.258Z,100.00
2022-08-23T07:37:31.008Z,100.00
2022-08-23T07:39:59.448Z,100.00
2022-08-23T07:42:28.061Z,100.00
2022-08-23T07:44:56.520Z,100.00
2022-08-23T07:47:28.649Z,100.00
2022-08-23T07:49:57.131Z,100.00
2022-08-23T07:52:25.556Z,100.00
2022-08-23T07:54:53.988Z,100.00
2022-08-23T07:57:22.377Z,100.00
2022-08-23T07:59:50.840Z,100.00
2022-08-23T08:02:19.333Z,100.00
2022-08-23T08:04:49.118Z,100.00
2022-08-23T08:07:20.824Z,100.00
2022-08-23T08:09:49.926Z,100.00
2022-08-23T08:12:18.544Z,100.00
2022-08-23T08:14:48.470Z,100.00
2022-08-23T08:17:18.173Z,100.00
2022-08-23T08:19:47.335Z,100.00
2022-08-23T08:22:17.279Z,100.00
2022-08-23T08:24:45.965Z,100.00
2022-08-23T08:27:14.388Z,100.00
2022-08-23T08:29:44.140Z,100.00
2022-08-23T08:32:14.096Z,100.00
2022-08-23T08:34:43.257Z,100.00
2022-08-23T08:37:11.919Z,100.00
2022-08-23T08:39:45.960Z,100.00
2022-08-23T08:42:41.818Z,100.00
2022-08-23T08:45:13.194Z,100.00
2022-08-23T08:47:47.137Z,100.00
2022-08-23T08:50:20.837Z,100.00
2022-08-23T08:52:52.839Z,100.00
2022-08-23T08:55:28.621Z,100.00
2022-08-23T08:57:57.586Z,100.00
2022-08-23T09:00:28.641Z,100.00
2022-08-23T09:02:59.735Z,100.00
2022-08-23T09:05:33.981Z,100.00
2022-08-23T09:08:15.198Z,96.21
2022-08-23T09:10:58.187Z,100.00
2022-08-23T09:13:59.686Z,100.00
2022-08-23T09:16:39.838Z,96.63
2022-08-23T09:19:08.557Z,100.00
2022-08-23T09:21:47.976Z,100.00
2022-08-23T09:24:17.621Z,100.00
2022-08-23T09:26:47.495Z,100.00
2022-08-23T09:29:22.173Z,100.00
2022-08-23T09:31:53.076Z,99.88
2022-08-23T09:34:38.781Z,100.00
2022-08-23T09:37:18.260Z,94.33
2022-08-23T09:39:49.726Z,99.51
2022-08-23T09:42:31.698Z,100.00
2022-08-23T09:45:01.262Z,100.00
2022-08-23T09:47:43.264Z,100.00
2022-08-23T09:50:25.637Z,100.00
2022-08-23T09:53:00.271Z,100.00
2022-08-23T09:55:33.168Z,100.00
2022-08-23T09:58:05.054Z,100.00
2022-08-23T10:00:36.837Z,100.00
2022-08-23T10:03:22.664Z,100.00
2022-08-23T10:05:52.812Z,100.00
2022-08-23T10:08:27.437Z,100.00
2022-08-23T10:10:59.865Z,100.00
2022-08-23T10:13:30.400Z,100.00
2022-08-23T10:16:08.386Z,99.42
2022-08-23T10:18:52.401Z,99.47
2022-08-23T10:21:26.737Z,100.00
2022-08-23T10:24:11.680Z,100.00
2022-08-23T10:26:47.775Z,96.15
2022-08-23T10:29:41.201Z,91.48
2022-08-23T10:32:21.888Z,95.18
2022-08-23T10:35:04.406Z,80.20
2022-08-23T10:37:57.939Z,83.68
2022-08-23T10:40:31.254Z,81.56
2022-08-23T10:43:15.885Z,76.54
2022-08-23T10:45:47.905Z,71.27
2022-08-23T10:48:27.524Z,77.54
2022-08-23T10:50:58.759Z,76.40
2022-08-23T10:53:36.524Z,85.69
2022-08-23T10:56:06.395Z,90.37
2022-08-23T10:58:42.407Z,83.89
2022-08-23T11:01:16.190Z,77.82
2022-08-23T11:03:48.413Z,72.96
2022-08-23T11:06:51.120Z,71.57
2022-08-23T11:09:48.828Z,67.25
2022-08-23T11:12:25.797Z,71.02
2022-08-23T11:15:23.548Z,69.09
2022-08-23T11:18:00.939Z,70.55
2022-08-23T11:21:01.071Z,68.79
2022-08-23T11:23:48.310Z,66.55
2022-08-23T11:27:06.308Z,65.38
2022-08-23T11:29:43.453Z,58.16
2022-08-23T11:32:28.060Z,56.06
2022-08-23T11:35:10.573Z,53.47
2022-08-23T11:37:57.286Z,53.27
2022-08-23T11:41:07.176Z,48.75
2022-08-23T11:43:38.563Z,49.82
2022-08-23T11:46:34.659Z,53.56
2022-08-23T11:49:31.606Z,56.34
2022-08-23T11:52:12.954Z,57.39
2022-08-23T11:55:03.010Z,63.08
2022-08-23T11:57:54.335Z,60.67
2022-08-23T12:00:29.365Z,61.75
2022-08-23T12:03:06.170Z,67.89
2022-08-23T12:06:12.602Z,64.37
2022-08-23T12:08:56.197Z,60.14
2022-08-23T12:11:26.424Z,59.78
2022-08-23T12:13:59.651Z,61.35
2022-08-23T12:16:49.647Z,69.19
2022-08-23T12:19:31.531Z,70.56
2022-08-23T12:22:09.076Z,66.98
2022-08-23T12:24:44.489Z,69.98
2022-08-23T12:27:27.670Z,69.27
2022-08-23T12:30:03.052Z,64.34
2022-08-23T12:32:42.604Z,75.69
2022-08-23T12:35:35.042Z,66.34
2022-08-23T12:38:09.658Z,68.72
2022-08-23T12:40:42.580Z,67.05
2022-08-23T12:43:22.661Z,64.45
2022-08-23T12:45:55.357Z,66.03
2022-08-23T12:48:26.700Z,54.21
2022-08-23T12:50:57.097Z,41.04
2022-08-23T12:53:32.384Z,40.35
2022-08-23T12:56:03.918Z,41.61
2022-08-23T12:58:36.457Z,45.76
2022-08-23T13:01:07.542Z,43.89
2022-08-23T13:03:39.838Z,45.94
2022-08-23T13:06:11.145Z,42.22
2022-08-23T13:08:45.046Z,42.50
2022-08-23T13:11:15.919Z,41.18
2022-08-23T13:13:45.681Z,43.68
2022-08-23T13:16:29.785Z,49.16
2022-08-23T13:19:16.095Z,49.34
2022-08-23T13:21:45.079Z,53.22
2022-08-23T13:24:37.992Z,46.62
2022-08-23T13:27:20.537Z,44.94
2022-08-23T13:29:57.971Z,46.77
2022-08-23T13:32:30.108Z,42.25
2022-08-23T13:35:34.041Z,46.10
2022-08-23T13:38:11.420Z,51.66
2022-08-23T13:40:50.393Z,50.87
2022-08-23T13:43:23.670Z,46.75
2022-08-23T13:45:55.997Z,47.79
2022-08-23T13:48:28.590Z,49.98
2022-08-23T13:51:21.985Z,48.28
2022-08-23T13:53:50.399Z,46.86
2022-08-23T13:56:20.605Z,45.99
2022-08-23T13:58:56.410Z,51.81
2022-08-23T14:01:25.557Z,49.65
2022-08-23T14:03:54.466Z,46.03
2022-08-23T14:06:23.843Z,49.46
2022-08-23T14:08:52.313Z,52.95
2022-08-23T14:11:22.328Z,52.05
2022-08-23T14:13:51.204Z,53.64
2022-08-23T14:16:33.414Z,50.43
2022-08-23T14:19:55.213Z,53.07
2022-08-23T14:21:52.177Z,49.22
2022-08-23T14:24:22.390Z,49.72
2022-08-23T14:26:52.939Z,48.54
2022-08-23T14:29:22.785Z,49.02
2022-08-23T14:31:52.280Z,54.40
2022-08-23T14:34:20.951Z,49.68
2022-08-23T14:39:38.407Z,44.18
2022-08-23T14:42:09.183Z,46.22
2022-08-23T14:44:37.572Z,47.97
2022-08-23T14:47:07.447Z,47.66
2022-08-23T14:49:36.193Z,48.05
2022-08-23T14:52:05.405Z,52.05
2022-08-23T14:54:34.488Z,46.45
2022-08-23T14:57:02.973Z,48.64
2022-08-23T14:59:32.793Z,47.47
2022-08-23T15:02:03.460Z,50.75
2022-08-23T15:04:34.957Z,50.83
2022-08-23T15:07:19.938Z,49.01
2022-08-23T15:09:49.025Z,52.81
2022-08-23T15:15:12.156Z,62.94
2022-08-23T15:17:48.335Z,59.52
2022-08-23T15:20:16.915Z,65.42
2022-08-23T15:22:55.426Z,63.75
2022-08-23T15:25:36.789Z,70.74
2022-08-23T15:28:07.613Z,66.52
2022-08-23T15:30:41.135Z,65.16
2022-08-23T15:33:10.688Z,65.11
2022-08-23T15:35:43.523Z,70.63
2022-08-23T15:38:15.507Z,67.31
2022-08-23T15:40:44.729Z,68.06
2022-08-23T15:43:13.621Z,71.76
2022-08-23T15:45:43.831Z,71.25
2022-08-23T15:48:17.129Z,71.37
2022-08-23T15:50:47.680Z,67.91
2022-08-23T15:53:17.172Z,66.60
2022-08-23T15:55:46.868Z,71.35
2022-08-23T15:58:17.738Z,68.17
2022-08-23T16:00:48.909Z,69.92
2022-08-23T16:03:21.040Z,73.21
2022-08-23T16:05:52.897Z,70.11
2022-08-23T16:08:26.349Z,66.19
2022-08-23T16:10:56.056Z,81.63
2022-08-23T16:13:25.601Z,100.00
2022-08-23T16:15:55.693Z,100.00
2022-08-23T16:18:24.065Z,100.00
2022-08-23T16:20:54.358Z,100.00
2022-08-23T16:23:24.212Z,100.00
2022-08-23T16:25:52.933Z,100.00
2022-08-23T16:28:21.788Z,100.00
2022-08-23T16:30:50.786Z,100.00
2022-08-23T16:33:21.529Z,100.00
2022-08-23T16:35:49.905Z,100.00
2022-08-23T16:38:22.255Z,100.00
2022-08-23T16:40:53.877Z,100.00
2022-08-23T16:43:25.327Z,100.00
2022-08-23T16:45:59.600Z,100.00
2022-08-23T16:48:29.584Z,100.00
2022-08-23T16:50:58.428Z,100.00
2022-08-23T16:53:27.162Z,100.00
2022-08-23T16:55:57.280Z,100.00
2022-08-23T16:58:29.241Z,100.00
2022-08-23T17:00:59.545Z,100.00
2022-08-23T17:03:38.822Z,100.00
2022-08-23T17:06:08.894Z,100.00
2022-08-23T17:08:40.252Z,100.00
2022-08-23T17:11:14.315Z,100.00
2022-08-23T17:13:46.900Z,100.00
2022-08-23T17:16:15.549Z,100.00
2022-08-23T17:18:45.594Z,100.00
2022-08-23T17:21:14.431Z,100.00
2022-08-23T17:23:42.984Z,100.00
2022-08-23T17:26:11.670Z,100.00
2022-08-23T17:28:40.208Z,100.00
2022-08-23T17:31:08.634Z,100.00
2022-08-23T17:33:37.048Z,100.00
2022-08-23T17:36:11.650Z,100.00
2022-08-23T17:38:40.179Z,100.00
2022-08-23T17:41:08.562Z,100.00
2022-08-23T17:43:36.995Z,100.00
2022-08-23T17:46:05.547Z,100.00
2022-08-23T17:48:33.945Z,100.00
2022-08-23T17:51:02.378Z,100.00
2022-08-23T17:53:32.278Z,100.00
2022-08-23T17:56:01.863Z,100.00
2022-08-23T17:58:34.294Z,100.00
2022-08-23T18:01:02.786Z,100.00
2022-08-23T18:03:31.909Z,100.00
2022-08-23T18:06:00.753Z,100.00
2022-08-23T18:08:29.139Z,100.00
2022-08-23T18:10:59.276Z,100.00
2022-08-23T18:13:27.677Z,100.00
2022-08-23T18:15:56.065Z,100.00
2022-08-23T18:18:24.528Z,100.00
2022-08-23T18:20:53.009Z,100.00
2022-08-23T18:23:21.773Z,100.00
2022-08-23T18:25:50.235Z,100.00
2022-08-23T18:28:20.363Z,100.00
2022-08-23T18:30:51.014Z,100.00
2022-08-23T18:33:21.368Z,100.00
2022-08-23T18:35:53.773Z,100.00
2022-08-23T18:38:22.285Z,100.00
2022-08-23T18:40:50.905Z,100.00
2022-08-23T18:43:25.909Z,100.00
2022-08-23T18:45:57.254Z,100.00
2022-08-23T18:48:26.064Z,100.00
2022-08-23T18:50:54.715Z,100.00
2022-08-23T18:53:29.504Z,100.00
2022-08-23T18:55:58.018Z,100.00
2022-08-23T18:58:28.881Z,100.00
2022-08-23T19:00:57.491Z,100.00
2022-08-23T19:03:26.165Z,100.00
2022-08-23T19:05:54.817Z,100.00
2022-08-23T19:08:24.998Z,100.00
2022-08-23T19:10:53.746Z,100.00
2022-08-23T19:13:22.560Z,100.00
2022-08-23T19:15:53.033Z,100.00
2022-08-23T19:18:22.110Z,100.00
2022-08-23T19:20:50.736Z,100.00
2022-08-23T19:23:21.735Z,100.00
2022-08-23T19:25:50.414Z,100.00
2022-08-23T19:28:20.093Z,100.00
2022-08-23T19:30:52.041Z,100.00
2022-08-23T19:33:20.848Z,100.00
2022-08-23T19:35:49.781Z,100.00
2022-08-23T19:38:19.884Z,100.00
2022-08-23T19:40:49.099Z,100.00
2022-08-23T19:43:18.229Z,100.00
2022-08-23T19:45:46.914Z,100.00
2022-08-23T19:48:16.846Z,100.00
2022-08-23T19:50:45.246Z,100.00
2022-08-23T19:53:14.245Z,100.00
2022-08-23T19:55:44.802Z,100.00
2022-08-23T19:58:15.520Z,100.00
2022-08-23T20:00:44.202Z,100.00
2022-08-23T20:03:13.025Z,100.00
2022-08-23T20:05:44.031Z,100.00
2022-08-23T20:08:12.527Z,100.00
2022-08-23T20:10:41.063Z,100.00
2022-08-23T20:13:09.644Z,100.00
2022-08-23T20:15:39.535Z,100.00
2022-08-23T20:18:08.008Z,100.00
2022-08-23T20:20:36.449Z,100.00
2022-08-23T20:23:23.524Z,100.00
2022-08-23T20:25:52.047Z,100.00
2022-08-23T20:28:26.173Z,100.00
2022-08-23T20:30:55.908Z,100.00
2022-08-23T20:33:24.508Z,100.00
2022-08-23T20:35:52.997Z,100.00
2022-08-23T20:38:33.122Z,100.00
2022-08-23T20:41:02.155Z,100.00
2022-08-23T20:43:32.888Z,100.00
2022-08-23T20:46:01.558Z,100.00
2022-08-23T20:48:30.004Z,100.00
2022-08-23T20:51:00.640Z,100.00
2022-08-23T20:53:30.694Z,100.00
2022-08-23T20:55:59.902Z,100.00
2022-08-23T20:58:28.709Z,100.00
2022-08-23T21:00:57.914Z,100.00
2022-08-23T21:03:26.539Z,100.00
2022-08-23T21:06:04.485Z,100.00
2022-08-23T21:08:34.873Z,100.00
2022-08-23T21:11:06.075Z,100.00
2022-08-23T21:13:35.100Z,100.00
2022-08-23T21:16:03.713Z,100.00
2022-08-23T21:18:32.178Z,100.00
2022-08-23T21:21:00.639Z,100.00
2022-08-23T21:23:29.145Z,100.00
2022-08-23T21:25:59.528Z,100.00
2022-08-23T21:28:29.275Z,100.00
2022-08-23T21:31:06.155Z,100.00
2022-08-23T21:33:39.765Z,100.00
2022-08-23T21:36:09.175Z,100.00
2022-08-23T21:38:38.235Z,100.00
2022-08-23T21:41:11.440Z,100.00
2022-08-23T21:43:40.306Z,100.00
2022-08-23T21:46:08.847Z,100.00
2022-08-23T21:48:37.353Z,100.00
2022-08-23T21:51:05.877Z,100.00
2022-08-23T21:53:34.264Z,100.00
2022-08-23T21:56:02.841Z,100.00
2022-08-23T21:58:32.716Z,100.00
2022-08-23T22:01:01.139Z,100.00
2022-08-23T22:03:29.883Z,100.00
2022-08-23T22:05:58.381Z,100.00
2022-08-23T22:08:26.839Z,100.00
2022-08-23T22:10:57.833Z,100.00
2022-08-23T22:13:28.840Z,100.00
2022-08-23T22:16:00.662Z,100.00
2022-08-23T22:18:29.505Z,100.00
2022-08-23T22:20:58.661Z,100.00
2022-08-23T22:23:28.065Z,100.00
2022-08-23T22:25:57.807Z,100.00
2022-08-23T22:28:26.391Z,100.00
2022-08-23T22:31:02.691Z,100.00
2022-08-23T22:33:31.509Z,100.00
2022-08-23T22:36:04.280Z,100.00
2022-08-23T22:38:32.911Z,100.00
2022-08-23T22:41:01.366Z,100.00
2022-08-23T22:43:29.905Z,100.00
2022-08-23T22:46:01.407Z,100.00
2022-08-23T22:48:33.092Z,100.00
2022-08-23T22:51:07.464Z,100.00
2022-08-23T22:53:37.161Z,100.00
2022-08-23T22:56:07.377Z,100.00
2022-08-23T22:58:35.905Z,100.00
2022-08-23T23:01:13.122Z,100.00
2022-08-23T23:03:42.598Z,100.00
2022-08-23T23:06:11.238Z,100.00
2022-08-23T23:08:39.849Z,100.00
2022-08-23T23:11:10.305Z,100.00
2022-08-23T23:13:41.206Z,100.00
2022-08-23T23:16:13.632Z,100.00
2022-08-23T23:18:43.343Z,100.00
2022-08-23T23:21:11.692Z,100.00
2022-08-23T23:23:40.082Z,100.00
2022-08-23T23:26:09.649Z,100.00
2022-08-23T23:28:38.032Z,100.00
2022-08-23T23:31:06.533Z,100.00
2022-08-23T23:33:36.419Z,100.00
2022-08-23T23:36:05.424Z,100.00
2022-08-23T23:38:33.816Z,100.00
2022-08-23T23:41:06.230Z,100.00
2022-08-23T23:43:34.748Z,100.00
2022-08-23T23:46:06.492Z,100.00
2022-08-23T23:48:36.381Z,100.00
2022-08-23T23:51:08.039Z,100.00
2022-08-23T23:53:36.681Z,100.00
2022-08-23T23:56:06.454Z,100.00
2022-08-23T23:58:37.417Z,100.00
